createdAt,value
2022-09-04T00:00:15.472Z,68.52
2022-09-04T00:03:08.657Z,68.42
2022-09-04T00:05:39.710Z,68.93
2022-09-04T00:08:25.069Z,69.11
2022-09-04T00:11:27.047Z,70.00
2022-09-04T00:14:07.357Z,69.33
2022-09-04T00:16:43.007Z,69.55
2022-09-04T00:19:16.875Z,70.58
2022-09-04T00:21:51.095Z,70.92
2022-09-04T00:24:42.310Z,70.83
2022-09-04T00:27:21.740Z,70.78
2022-09-04T00:29:55.455Z,71.75
2022-09-04T00:32:39.922Z,72.41
2022-09-04T00:35:17.012Z,73.17
2022-09-04T00:38:03.434Z,72.40
2022-09-04T00:40:35.795Z,72.68
2022-09-04T00:43:36.611Z,73.26
2022-09-04T00:46:31.984Z,72.95
2022-09-04T00:49:36.591Z,74.22
2022-09-04T00:52:36.948Z,73.73
2022-09-04T00:55:41.155Z,73.74
2022-09-04T00:58:30.362Z,73.92
2022-09-04T01:00:58.474Z,74.69
2022-09-04T01:03:53.537Z,75.18
2022-09-04T01:06:32.067Z,74.45
2022-09-04T01:09:44.136Z,74.88
2022-09-04T01:12:30.074Z,74.81
2022-09-04T01:15:14.681Z,74.94
2022-09-04T01:17:52.556Z,75.23
2022-09-04T01:20:28.150Z,75.26
2022-09-04T01:23:17.243Z,74.95
2022-09-04T01:26:00.897Z,76.21
2022-09-04T01:28:49.757Z,76.05
2022-09-04T01:31:25.124Z,75.41
2022-09-04T01:34:35.783Z,76.11
2022-09-04T01:37:44.011Z,75.97
2022-09-04T01:40:24.030Z,76.40
2022-09-04T01:43:08.506Z,77.15
2022-09-04T01:45:53.321Z,77.47
2022-09-04T01:48:27.781Z,77.62
2022-09-04T01:50:58.499Z,77.48
2022-09-04T01:53:26.679Z,78.24
2022-09-04T01:56:21.855Z,78.88
2022-09-04T01:58:56.798Z,79.04
2022-09-04T02:01:32.169Z,78.17
2022-09-04T02:04:22.197Z,78.08
2022-09-04T02:07:15.615Z,78.36
2022-09-04T02:10:01.577Z,78.83
2022-09-04T02:12:38.146Z,78.85
2022-09-04T02:15:13.445Z,79.12
2022-09-04T02:17:47.409Z,79.59
2022-09-04T02:20:24.099Z,79.97
2022-09-04T02:23:11.865Z,79.79
2022-09-04T02:25:58.269Z,79.58
2022-09-04T02:28:47.848Z,79.82
2022-09-04T02:31:32.865Z,79.74
2022-09-04T02:34:13.674Z,79.92
2022-09-04T02:36:47.119Z,79.33
2022-09-04T02:39:36.945Z,79.59
2022-09-04T02:42:24.216Z,80.01
2022-09-04T02:44:53.913Z,81.06
2022-09-04T02:47:51.532Z,80.63
2022-09-04T02:50:46.329Z,80.99
2022-09-04T02:53:51.688Z,80.58
2022-09-04T02:56:31.376Z,80.37
2022-09-04T02:59:19.839Z,80.67
2022-09-04T03:01:58.223Z,81.70
2022-09-04T03:04:39.379Z,81.91
2022-09-04T03:07:13.784Z,81.81
2022-09-04T03:09:52.701Z,82.23
2022-09-04T03:12:30.158Z,81.62
2022-09-04T03:15:17.799Z,81.49
2022-09-04T03:17:49.304Z,81.86
2022-09-04T03:20:53.042Z,81.89
2022-09-04T03:23:43.641Z,81.96
2022-09-04T03:26:18.948Z,82.46
2022-09-04T03:29:01.135Z,82.71
2022-09-04T03:31:39.444Z,82.47
2022-09-04T03:34:30.207Z,82.73
2022-09-04T03:37:12.833Z,83.33
2022-09-04T03:40:09.185Z,83.62
2022-09-04T03:42:58.118Z,83.35
2022-09-04T03:45:36.961Z,82.33
2022-09-04T03:48:27.657Z,82.11
2022-09-04T03:51:33.423Z,82.54
2022-09-04T03:54:37.370Z,82.73
2022-09-04T03:57:15.953Z,82.64
2022-09-04T03:59:55.102Z,82.50
2022-09-04T04:03:00.830Z,83.37
2022-09-04T04:05:52.869Z,83.00
2022-09-04T04:08:37.822Z,83.17
2022-09-04T04:11:07.401Z,83.63
2022-09-04T04:14:01.790Z,83.34
2022-09-04T04:16:40.774Z,83.75
2022-09-04T04:19:29.035Z,83.30
2022-09-04T04:22:06.502Z,83.81
2022-09-04T04:25:12.361Z,83.72
2022-09-04T04:27:44.716Z,83.58
2022-09-04T04:30:15.103Z,83.34
2022-09-04T04:33:19.893Z,83.37
2022-09-04T04:36:17.795Z,83.41
2022-09-04T04:38:56.303Z,83.57
2022-09-04T04:41:55.812Z,83.86
2022-09-04T04:44:50.312Z,83.53
2022-09-04T04:47:41.031Z,83.89
2022-09-04T04:50:22.428Z,84.60
2022-09-04T04:53:14.644Z,84.47
2022-09-04T04:56:04.580Z,84.57
2022-09-04T04:58:51.251Z,84.59
2022-09-04T05:01:25.669Z,84.94
2022-09-04T05:04:13.863Z,85.03
2022-09-04T05:06:50.982Z,85.29
2022-09-04T05:09:33.598Z,84.67
2022-09-04T05:12:11.542Z,84.81
2022-09-04T05:14:45.835Z,85.00
2022-09-04T05:17:36.255Z,85.06
2022-09-04T05:20:23.919Z,86.40
2022-09-04T05:23:09.589Z,87.90
2022-09-04T05:26:14.976Z,87.29
2022-09-04T05:29:05.150Z,88.42
2022-09-04T05:31:49.158Z,87.24
2022-09-04T05:34:36.849Z,87.40
2022-09-04T05:37:07.934Z,87.25
2022-09-04T05:39:48.323Z,86.85
2022-09-04T05:42:34.038Z,86.38
2022-09-04T05:45:21.861Z,86.25
2022-09-04T05:48:02.717Z,85.30
2022-09-04T05:50:31.972Z,86.05
2022-09-04T05:53:14.524Z,84.93
2022-09-04T05:56:05.159Z,83.38
2022-09-04T05:59:03.160Z,82.93
2022-09-04T06:01:56.951Z,82.81
2022-09-04T06:04:39.835Z,82.08
2022-09-04T06:07:27.712Z,82.14
2022-09-04T06:10:00.446Z,81.48
2022-09-04T06:12:48.377Z,80.00
2022-09-04T06:16:03.183Z,79.54
2022-09-04T06:19:16.821Z,78.71
2022-09-04T06:21:43.525Z,78.59
2022-09-04T06:24:21.099Z,78.13
2022-09-04T06:27:08.775Z,78.17
2022-09-04T06:29:54.257Z,77.69
2022-09-04T06:32:27.736Z,77.02
2022-09-04T06:35:12.049Z,75.93
2022-09-04T06:38:16.207Z,74.49
2022-09-04T06:41:08.521Z,74.30
2022-09-04T06:43:58.492Z,73.91
2022-09-04T06:46:34.433Z,72.37
2022-09-04T06:49:10.038Z,72.07
2022-09-04T06:51:52.330Z,71.43
2022-09-04T06:55:01.353Z,69.74
2022-09-04T06:57:46.431Z,57.79
2022-09-04T07:00:17.726Z,46.29
2022-09-04T07:02:55.823Z,39.35
2022-09-04T07:05:40.505Z,33.54
2022-09-04T07:08:33.647Z,29.54
2022-09-04T07:11:21.210Z,27.53
2022-09-04T07:13:54.516Z,25.26
2022-09-04T07:16:33.177Z,24.23
2022-09-04T07:19:37.451Z,22.19
2022-09-04T07:22:34.846Z,21.08
2022-09-04T07:25:04.037Z,20.86
2022-09-04T07:27:41.061Z,19.33
2022-09-04T07:30:12.411Z,19.12
2022-09-04T07:32:49.424Z,19.39
2022-09-04T07:35:38.376Z,19.56
2022-09-04T07:38:37.730Z,18.50
2022-09-04T07:41:32.495Z,17.95
2022-09-04T07:44:17.486Z,17.65
2022-09-04T07:46:52.585Z,17.69
2022-09-04T07:49:58.266Z,18.46
2022-09-04T07:53:03.023Z,19.92
2022-09-04T07:55:36.891Z,20.96
2022-09-04T07:58:37.443Z,20.06
2022-09-04T08:01:23.329Z,20.51
2022-09-04T08:04:09.724Z,19.67
2022-09-04T08:06:39.063Z,20.66
2022-09-04T08:09:33.907Z,21.93
2022-09-04T08:12:32.324Z,23.13
2022-09-04T08:15:05.882Z,24.90
2022-09-04T08:17:51.309Z,27.58
2022-09-04T08:20:46.910Z,29.08
2022-09-04T08:23:35.889Z,30.14
2022-09-04T08:26:27.317Z,34.13
2022-09-04T08:29:14.138Z,34.19
2022-09-04T08:31:43.412Z,33.86
2022-09-04T08:34:46.262Z,35.16
2022-09-04T08:37:50.401Z,34.50
2022-09-04T08:40:38.839Z,34.39
2022-09-04T08:43:29.316Z,34.67
2022-09-04T08:46:28.735Z,33.88
2022-09-04T08:49:23.126Z,33.88
2022-09-04T08:52:01.541Z,33.47
2022-09-04T08:54:51.044Z,34.16
2022-09-04T08:57:47.257Z,33.46
2022-09-04T09:00:45.676Z,33.89
2022-09-04T09:03:36.926Z,34.57
2022-09-04T09:06:21.465Z,35.79
2022-09-04T09:09:21.977Z,34.91
2022-09-04T09:11:54.308Z,34.01
2022-09-04T09:14:42.480Z,33.75
2022-09-04T09:17:38.542Z,33.65
2022-09-04T09:20:42.383Z,34.18
2022-09-04T09:23:18.125Z,35.80
2022-09-04T09:26:23.740Z,35.40
2022-09-04T09:29:09.198Z,34.99
2022-09-04T09:31:55.131Z,35.90
2022-09-04T09:35:01.417Z,35.96
2022-09-04T09:37:48.984Z,36.13
2022-09-04T09:40:28.274Z,35.33
2022-09-04T09:43:12.538Z,35.09
2022-09-04T09:46:00.810Z,35.34
2022-09-04T09:49:04.806Z,35.22
2022-09-04T09:51:51.266Z,35.41
2022-09-04T09:54:38.044Z,36.28
2022-09-04T09:57:38.980Z,36.04
2022-09-04T10:00:15.929Z,34.17
2022-09-04T10:03:02.736Z,34.66
2022-09-04T10:05:54.346Z,34.53
2022-09-04T10:09:01.054Z,34.28
2022-09-04T10:12:01.734Z,34.71
2022-09-04T10:14:53.764Z,35.04
2022-09-04T10:17:33.836Z,34.59
2022-09-04T10:20:15.445Z,33.71
2022-09-04T10:23:04.484Z,35.00
2022-09-04T10:25:56.372Z,34.30
2022-09-04T10:28:57.991Z,33.76
2022-09-04T10:31:31.272Z,34.82
2022-09-04T10:34:24.293Z,34.77
2022-09-04T10:37:21.139Z,33.95
2022-09-04T10:40:25.191Z,33.18
2022-09-04T10:43:17.092Z,32.15
2022-09-04T10:46:02.404Z,31.29
2022-09-04T10:48:54.095Z,31.31
2022-09-04T10:51:31.673Z,30.86
2022-09-04T10:54:11.146Z,30.49
2022-09-04T10:57:03.718Z,29.92
2022-09-04T11:00:06.048Z,30.16
2022-09-04T11:03:03.496Z,29.28
2022-09-04T11:06:02.317Z,29.62
2022-09-04T11:08:50.958Z,29.47
2022-09-04T11:11:36.230Z,29.74
2022-09-04T11:14:28.384Z,29.03
2022-09-04T11:17:28.383Z,29.78
2022-09-04T11:20:00.871Z,29.75
2022-09-04T11:22:58.148Z,29.21
2022-09-04T11:25:45.697Z,29.06
2022-09-04T11:28:40.352Z,28.42
2022-09-04T11:31:25.319Z,27.12
2022-09-04T11:34:11.687Z,26.94
2022-09-04T11:36:58.357Z,27.25
2022-09-04T11:39:52.821Z,27.07
2022-09-04T11:42:29.378Z,27.69
2022-09-04T11:45:27.088Z,26.59
2022-09-04T11:48:01.204Z,26.75
2022-09-04T11:50:38.573Z,26.60
2022-09-04T11:53:40.598Z,27.09
2022-09-04T11:56:25.578Z,28.24
2022-09-04T11:59:21.243Z,30.34
2022-09-04T12:02:09.213Z,32.05
2022-09-04T12:05:04.291Z,33.10
2022-09-04T12:07:55.351Z,33.48
2022-09-04T12:10:47.839Z,33.28
2022-09-04T12:13:16.966Z,33.83
2022-09-04T12:15:58.490Z,34.05
2022-09-04T12:18:54.432Z,32.92
2022-09-04T12:21:53.256Z,34.76
2022-09-04T12:24:58.161Z,36.24
2022-09-04T12:27:46.215Z,35.47
2022-09-04T12:30:23.605Z,35.90
2022-09-04T12:33:20.706Z,34.63
2022-09-04T12:36:06.282Z,34.47
2022-09-04T12:39:02.902Z,34.65
2022-09-04T12:41:50.034Z,34.75
2022-09-04T12:44:38.356Z,35.17
2022-09-04T12:47:14.066Z,34.95
2022-09-04T12:49:46.608Z,35.07
2022-09-04T12:52:22.061Z,34.55
2022-09-04T12:55:03.483Z,34.41
2022-09-04T12:58:01.090Z,35.24
2022-09-04T13:00:40.899Z,34.33
2022-09-04T13:03:17.439Z,33.97
2022-09-04T13:05:54.084Z,34.50
2022-09-04T13:08:39.445Z,33.30
2022-09-04T13:11:34.747Z,32.56
2022-09-04T13:14:31.611Z,32.68
2022-09-04T13:17:20.310Z,32.50
2022-09-04T13:20:00.162Z,32.32
2022-09-04T13:22:58.473Z,31.79
2022-09-04T13:25:34.028Z,32.37
2022-09-04T13:28:29.282Z,30.61
2022-09-04T13:31:19.822Z,30.39
2022-09-04T13:34:10.036Z,30.71
2022-09-04T13:36:55.199Z,30.93
2022-09-04T13:39:28.053Z,31.31
2022-09-04T13:42:06.702Z,31.48
2022-09-04T13:44:51.036Z,31.09
2022-09-04T13:47:32.443Z,31.13
2022-09-04T13:50:08.688Z,31.30
2022-09-04T13:52:46.248Z,31.48
2022-09-04T13:55:18.385Z,30.86
2022-09-04T13:58:03.864Z,29.79
2022-09-04T14:00:32.696Z,29.52
2022-09-04T14:03:03.651Z,28.88
2022-09-04T14:05:32.373Z,28.93
2022-09-04T14:08:05.310Z,28.50
2022-09-04T14:10:55.737Z,28.63
2022-09-04T14:13:58.744Z,28.44
2022-09-04T14:16:25.425Z,29.13
2022-09-04T14:19:15.650Z,29.04
2022-09-04T14:22:15.025Z,29.50
2022-09-04T14:25:11.703Z,29.75
2022-09-04T14:28:08.633Z,31.13
2022-09-04T14:30:58.895Z,31.62
2022-09-04T14:34:04.859Z,32.94
2022-09-04T14:36:49.766Z,32.90
2022-09-04T14:39:27.140Z,33.40
2022-09-04T14:42:16.352Z,33.66
2022-09-04T14:45:12.502Z,33.47
2022-09-04T14:47:47.122Z,33.56
2022-09-04T14:50:16.848Z,33.43
2022-09-04T14:52:53.352Z,33.36
2022-09-04T14:55:39.890Z,33.51
2022-09-04T14:58:18.073Z,33.07
2022-09-04T15:01:01.070Z,32.96
2022-09-04T15:03:35.107Z,33.30
2022-09-04T15:06:08.263Z,33.44
2022-09-04T15:08:40.610Z,33.89
2022-09-04T15:11:09.674Z,33.62
2022-09-04T15:13:55.684Z,34.05
2022-09-04T15:16:39.811Z,34.15
2022-09-04T15:19:26.624Z,34.72
2022-09-04T15:22:04.572Z,34.29
2022-09-04T15:24:38.154Z,34.11
2022-09-04T15:27:16.553Z,33.55
2022-09-04T15:30:03.872Z,33.94
2022-09-04T15:32:36.609Z,34.33
2022-09-04T15:35:24.208Z,33.71
2022-09-04T15:37:52.888Z,34.04
2022-09-04T15:40:34.542Z,34.50
2022-09-04T15:43:21.155Z,34.16
2022-09-04T15:45:53.314Z,34.57
2022-09-04T15:48:40.894Z,34.37
2022-09-04T15:51:19.145Z,34.34
2022-09-04T15:54:08.020Z,34.48
2022-09-04T15:56:39.529Z,34.48
2022-09-04T15:59:15.902Z,34.63
2022-09-04T16:02:11.816Z,34.78
2022-09-04T16:04:46.599Z,35.21
2022-09-04T16:07:19.707Z,36.40
2022-09-04T16:09:55.793Z,37.01
2022-09-04T16:12:34.443Z,37.54
2022-09-04T16:15:11.296Z,37.67
2022-09-04T16:17:45.225Z,37.88
2022-09-04T16:20:18.420Z,38.36
2022-09-04T16:22:52.002Z,38.17
2022-09-04T16:25:19.140Z,38.43
2022-09-04T16:27:54.258Z,38.73
2022-09-04T16:30:41.452Z,38.89
2022-09-04T16:33:27.268Z,39.05
2022-09-04T16:36:00.403Z,39.46
2022-09-04T16:38:32.397Z,39.37
2022-09-04T16:41:01.979Z,39.63
2022-09-04T16:43:32.237Z,39.64
2022-09-04T16:46:12.338Z,40.32
2022-09-04T16:48:50.613Z,40.65
2022-09-04T16:51:40.583Z,40.66
2022-09-04T16:54:28.634Z,40.77
2022-09-04T16:57:13.103Z,40.84
2022-09-04T17:00:01.166Z,40.99
2022-09-04T17:02:44.925Z,41.02
2022-09-04T17:05:19.704Z,41.31
2022-09-04T17:07:59.122Z,41.94
2022-09-04T17:10:55.018Z,41.83
2022-09-04T17:13:27.947Z,41.89
2022-09-04T17:16:12.190Z,41.91
2022-09-04T17:18:46.758Z,42.23
2022-09-04T17:24:36.592Z,42.44
2022-09-04T17:28:56.163Z,43.09
2022-09-04T17:29:08.799Z,43.52
2022-09-04T17:30:43.782Z,43.74
2022-09-04T17:39:01.159Z,43.35
2022-09-04T17:40:46.498Z,43.62
2022-09-04T17:40:53.608Z,43.52
2022-09-04T17:42:10.292Z,43.61
2022-09-04T17:44:50.491Z,43.88
2022-09-04T17:47:34.862Z,44.08
2022-09-04T17:50:02.735Z,44.48
2022-09-04T17:52:34.330Z,44.56
2022-09-04T17:55:10.783Z,44.97
2022-09-04T17:58:02.812Z,44.81
2022-09-04T18:00:50.184Z,44.40
2022-09-04T18:03:32.194Z,44.99
2022-09-04T18:06:21.909Z,44.83
2022-09-04T18:08:55.927Z,45.49
2022-09-04T18:11:27.799Z,45.23
2022-09-04T18:14:02.614Z,45.10
2022-09-04T18:17:12.116Z,44.99
2022-09-04T18:19:43.619Z,44.81
2022-09-04T18:22:46.111Z,45.19
2022-09-04T18:25:22.910Z,45.52
2022-09-04T18:28:12.526Z,45.13
2022-09-04T18:37:08.683Z,45.29
2022-09-04T18:37:19.199Z,45.41
2022-09-04T18:37:22.869Z,45.77
2022-09-04T18:39:48.819Z,45.91
2022-09-04T18:50:30.392Z,46.32
2022-09-04T18:50:31.249Z,46.47
2022-09-04T18:50:44.117Z,46.48
2022-09-04T18:51:35.015Z,46.09
2022-09-04T18:54:19.503Z,46.84
2022-09-04T18:56:49.594Z,46.01
2022-09-04T18:59:20.474Z,46.60
2022-09-04T19:02:10.892Z,46.45
2022-09-04T19:05:05.110Z,46.10
2022-09-04T19:07:53.168Z,46.47
2022-09-04T19:10:33.765Z,46.90
2022-09-04T19:13:08.418Z,46.34
2022-09-04T19:15:49.047Z,46.42
2022-09-04T19:18:27.110Z,46.08
2022-09-04T19:21:09.938Z,46.12
2022-09-04T19:24:05.299Z,46.19
2022-09-04T19:26:47.104Z,46.48
2022-09-04T19:29:13.799Z,46.49
2022-09-04T19:31:53.935Z,46.74
2022-09-04T19:34:31.315Z,46.76
2022-09-04T19:38:28.965Z,46.63
2022-09-04T19:46:02.563Z,47.41
2022-09-04T19:46:11.288Z,47.39
2022-09-04T19:46:17.920Z,47.41
2022-09-04T19:49:14.606Z,48.56
2022-09-04T19:53:32.907Z,49.19
2022-09-04T19:54:59.931Z,49.50
2022-09-04T19:57:40.061Z,49.03
2022-09-04T20:00:32.985Z,49.42
2022-09-04T20:03:05.622Z,49.95
2022-09-04T20:05:34.754Z,50.05
2022-09-04T20:08:16.937Z,50.29
2022-09-04T20:11:34.513Z,51.09
2022-09-04T20:14:13.921Z,51.46
2022-09-04T20:17:00.183Z,51.84
2022-09-04T20:19:38.718Z,51.94
2022-09-04T20:22:13.716Z,52.28
2022-09-04T20:25:18.306Z,52.93
2022-09-04T20:27:51.075Z,52.59
2022-09-04T20:30:25.077Z,52.94
2022-09-04T20:33:17.839Z,51.84
2022-09-04T20:35:59.006Z,52.42
2022-09-04T20:38:32.596Z,51.97
2022-09-04T20:41:27.715Z,51.47
2022-09-04T20:44:03.539Z,50.65
2022-09-04T20:51:29.328Z,50.26
2022-09-04T20:52:52.043Z,49.86
2022-09-04T20:52:55.064Z,50.19
2022-09-04T20:55:31.821Z,48.93
2022-09-04T21:03:06.294Z,48.68
2022-09-04T21:03:17.936Z,49.17
2022-09-04T21:04:17.999Z,48.79
2022-09-04T21:06:58.953Z,48.47
2022-09-04T21:09:55.414Z,48.92
2022-09-04T21:12:33.440Z,48.96
2022-09-04T21:15:14.687Z,48.30
2022-09-04T21:17:47.390Z,48.32
2022-09-04T21:20:38.962Z,48.37
2022-09-04T21:24:03.052Z,48.33
2022-09-04T21:26:58.646Z,48.21
2022-09-04T21:30:06.272Z,48.48
2022-09-04T21:33:26.940Z,48.60
2022-09-04T21:36:26.862Z,48.59
2022-09-04T21:39:25.881Z,48.36
2022-09-04T21:42:41.451Z,47.93
2022-09-04T21:45:37.058Z,47.74
2022-09-04T21:48:41.618Z,48.09
2022-09-04T21:51:29.397Z,47.82
2022-09-04T21:54:38.199Z,47.85
2022-09-04T22:02:30.922Z,47.55
2022-09-04T22:02:36.081Z,47.74
2022-09-04T22:03:19.389Z,47.31
2022-09-04T22:06:04.365Z,47.25
2022-09-04T22:13:28.627Z,46.93
2022-09-04T22:13:34.247Z,47.26
2022-09-04T22:14:43.139Z,47.09
2022-09-04T22:17:12.373Z,46.91
2022-09-04T22:19:50.611Z,46.29
2022-09-04T22:22:40.530Z,46.72
2022-09-04T22:25:26.588Z,47.00
2022-09-04T22:28:14.786Z,46.87
2022-09-04T22:31:09.241Z,47.15
2022-09-04T22:34:17.743Z,47.40
2022-09-04T22:37:22.038Z,47.17
2022-09-04T22:40:12.638Z,47.86
2022-09-04T22:42:46.355Z,47.68
2022-09-04T22:45:27.874Z,47.51
2022-09-04T22:48:06.292Z,47.53
2022-09-04T22:51:06.417Z,47.70
2022-09-04T22:53:51.886Z,48.59
2022-09-04T22:56:49.244Z,48.88
2022-09-04T22:59:38.752Z,48.62
2022-09-04T23:02:20.938Z,48.99
2022-09-04T23:05:21.485Z,49.15
2022-09-04T23:13:43.264Z,48.68
2022-09-04T23:13:46.602Z,48.95
2022-09-04T23:14:08.284Z,49.35
2022-09-04T23:16:53.538Z,49.62
2022-09-04T23:26:34.241Z,49.01
2022-09-04T23:26:44.990Z,49.30
2022-09-04T23:26:59.406Z,49.05
2022-09-04T23:28:52.305Z,49.51
2022-09-04T23:31:37.779Z,49.01
2022-09-04T23:34:27.982Z,49.37
2022-09-04T23:37:01.078Z,49.60
2022-09-04T23:39:54.939Z,49.75
2022-09-04T23:42:55.428Z,49.63
2022-09-04T23:45:48.621Z,49.30
2022-09-04T23:48:39.075Z,50.07
2022-09-04T23:51:15.952Z,49.73
2022-09-04T23:53:58.200Z,50.52
2022-09-04T23:56:30.040Z,50.36
2022-09-04T23:59:36.598Z,51.12
